Time;durP1;ratioP1;P1;durP2;ratioP2;P2;SDS_P1;SDS_P2;PMS_P1;PMS_P2;Temp;Humidity;BMP_temperature;BMP_pressure;BME280_temperature;BME280_humidity;BME280_pressure;Samples;Min_cycle;Max_cycle;Signal;HPM_P1;HPM_P2
2023/07/14 00:00:31;;;;;;;0.10;0.10;;;;;;;13.78;98.56;98776.34;4986837;28;20043;-78
2023/07/14 00:02:59;;;;;;;0.20;0.20;;;;;;;13.79;98.15;98766.19;4975842;28;20125;-78
2023/07/14 00:05:29;;;;;;;0.15;0.15;;;;;;;13.75;97.95;98764.09;4992504;28;20642;-78
2023/07/14 00:07:57;;;;;;;0.10;0.10;;;;;;;13.78;97.74;98767.31;4968779;28;20047;-78
2023/07/14 00:10:26;;;;;;;0.20;0.20;;;;;;;13.76;97.92;98753.88;4976150;28;20073;-78
2023/07/14 00:12:53;;;;;;;0.20;0.20;;;;;;;13.75;97.51;98755.03;4992829;28;20054;-78
2023/07/14 00:15:23;;;;;;;0.20;0.20;;;;;;;13.78;97.68;98762.63;4969101;28;20058;-77
2023/07/14 00:17:52;;;;;;;0.10;0.10;;;;;;;13.77;97.43;98760.22;4980077;28;20121;-77
2023/07/14 00:20:23;;;;;;;0.20;0.20;;;;;;;13.75;97.24;98753.09;4987763;28;20659;-78
2023/07/14 00:22:50;;;;;;;0.20;0.20;;;;;;;13.75;97.32;98755.84;4962197;28;20058;-78
2023/07/14 00:25:18;;;;;;;0.20;0.20;;;;;;;13.74;96.99;98754.22;4964694;28;20145;-79
2023/07/14 00:27:45;;;;;;;0.20;0.20;;;;;;;13.74;97.62;98750.66;4961113;28;20082;-79
2023/07/14 00:30:19;;;;;;;0.20;0.20;;;;;;;13.75;97.71;98744.03;4976525;28;20069;-78
2023/07/14 00:32:48;;;;;;;0.20;0.20;;;;;;;13.78;97.64;98753.56;4971068;28;20046;-78
2023/07/14 00:35:25;;;;;;;0.10;0.10;;;;;;;13.76;97.50;98753.88;4949379;28;20542;-78
2023/07/14 00:37:54;;;;;;;0.20;0.20;;;;;;;13.77;97.03;98762.94;4976512;28;20051;-79
2023/07/14 00:40:24;;;;;;;0.20;0.20;;;;;;;13.74;96.94;98764.41;4976728;28;20179;-78
2023/07/14 00:42:54;;;;;;;0.20;0.20;;;;;;;13.70;97.14;98758.72;4976930;28;20046;-78
2023/07/14 00:45:24;;;;;;;0.20;0.20;;;;;;;13.66;97.26;98756.94;4989349;28;20514;-79
2023/07/14 00:47:57;;;;;;;0.20;0.20;;;;;;;13.71;97.81;98767.78;4962365;28;20055;-79
2023/07/14 00:50:34;;;;;;;0.20;0.20;;;;;;;13.74;98.19;98769.88;4958172;28;20066;-79
2023/07/14 00:53:06;;;;;;;0.13;0.13;;;;;;;13.78;97.74;98770.84;4976402;28;20051;-80
2023/07/14 00:55:38;;;;;;;0.10;0.10;;;;;;;13.79;97.94;98769.72;4971924;28;20050;-79
2023/07/14 00:58:13;;;;;;;0.20;0.20;;;;;;;13.80;98.35;98774.09;4960039;28;20050;-79
2023/07/14 01:00:55;;;;;;;0.20;0.20;;;;;;;13.81;97.67;98775.69;4988041;28;20046;-78
2023/07/14 01:03:22;;;;;;;0.20;0.20;;;;;;;13.78;97.05;98770.84;4951899;28;20054;-79
2023/07/14 01:05:49;;;;;;;0.20;0.20;;;;;;;13.77;97.14;98768.44;4962623;28;20058;-79
2023/07/14 01:08:15;;;;;;;0.20;0.20;;;;;;;13.80;97.09;98771.34;4973298;28;20082;-79
2023/07/14 01:10:41;;;;;;;0.20;0.20;;;;;;;13.81;97.14;98774.91;4983363;28;20102;-79
2023/07/14 01:13:08;;;;;;;0.10;0.10;;;;;;;13.81;97.33;98775.69;4980108;28;20138;-78
2023/07/14 01:15:37;;;;;;;0.20;0.20;;;;;;;13.81;97.09;98766.66;4968924;28;20072;-78
2023/07/14 01:18:05;;;;;;;0.20;0.20;;;;;;;13.86;96.54;98785.72;4998108;28;20050;-78
2023/07/14 01:20:32;;;;;;;0.17;0.17;;;;;;;13.86;96.25;98789.31;4975734;28;20929;-78
2023/07/14 01:23:14;;;;;;;0.20;0.20;;;;;;;13.84;95.89;98775.09;4978914;28;20073;-79
2023/07/14 01:25:53;;;;;;;0.10;0.10;;;;;;;13.85;96.00;98778.63;4971855;28;20054;-78
2023/07/14 01:28:21;;;;;;;0.20;0.20;;;;;;;13.90;95.72;98781.22;4963936;28;20143;-77
2023/07/14 01:30:55;;;;;;;0.20;0.20;;;;;;;13.95;95.52;98780.25;4954140;28;20047;-78
2023/07/14 01:33:21;;;;;;;0.20;0.20;;;;;;;13.99;95.28;98782.03;4974819;28;20522;-79
2023/07/14 01:35:51;;;;;;;0.20;0.20;;;;;;;13.95;95.28;98770.06;4979416;28;20148;-79
2023/07/14 01:38:18;;;;;;;0.20;0.20;;;;;;;14.04;95.34;98784.59;5003008;28;20042;-78
2023/07/14 01:40:45;;;;;;;0.20;0.20;;;;;;;14.04;95.37;98770.06;4968396;28;20581;-78
2023/07/14 01:43:12;;;;;;;0.20;0.20;;;;;;;14.08;94.84;98784.78;4983507;28;20051;-78
2023/07/14 01:45:48;;;;;;;0.10;0.10;;;;;;;14.07;94.91;98779.63;4966651;28;20051;-78
2023/07/14 01:48:17;;;;;;;0.20;0.20;;;;;;;14.10;94.66;98788.00;4982241;28;20047;-78
2023/07/14 01:50:49;;;;;;;0.20;0.20;;;;;;;14.09;94.71;98789.13;4978802;28;20080;-78
2023/07/14 01:53:21;;;;;;;0.20;0.20;;;;;;;14.06;94.06;98789.00;4986293;28;20082;-79
2023/07/14 01:55:49;;;;;;;0.20;0.20;;;;;;;14.03;93.91;98794.00;4977324;28;20046;-78
2023/07/14 01:58:20;;;;;;;0.20;0.20;;;;;;;13.97;94.11;98784.28;4962181;28;20581;-78
2023/07/14 02:00:51;;;;;;;0.20;0.20;;;;;;;14.04;93.89;98803.06;4990036;28;20053;-79
2023/07/14 02:03:27;;;;;;;0.20;0.20;;;;;;;14.04;93.69;98803.84;4987259;28;20142;-79
2023/07/14 02:05:53;;;;;;;0.20;0.20;;;;;;;13.99;93.83;98806.75;4942012;28;20062;-78
2023/07/14 02:08:25;;;;;;;0.20;0.20;;;;;;;13.97;94.21;98803.53;4977489;28;20302;-78
2023/07/14 02:10:52;;;;;;;0.20;0.20;;;;;;;13.95;94.35;98810.47;4982211;28;20045;-78
2023/07/14 02:13:19;;;;;;;0.20;0.20;;;;;;;13.96;94.93;98817.56;4997408;28;20054;-77
2023/07/14 02:15:45;;;;;;;;;;;;;;;13.96;95.12;98809.34;4995235;28;20069;-79
2023/07/14 02:18:16;;;;;;;0.20;0.20;;;;;;;13.92;94.74;98805.63;4976651;28;20725;-78
2023/07/14 02:20:44;;;;;;;0.20;0.20;;;;;;;13.87;95.15;98801.09;4961506;28;20046;-79
2023/07/14 02:23:15;;;;;;;0.20;0.20;;;;;;;13.83;96.06;98802.88;4977935;28;20065;-78
2023/07/14 02:25:43;;;;;;;0.20;0.20;;;;;;;13.89;96.35;98812.56;4976760;28;20471;-78
2023/07/14 02:28:10;;;;;;;0.20;0.20;;;;;;;13.86;96.52;98807.72;4982217;28;20050;-78
2023/07/14 02:30:37;;;;;;;0.20;0.20;;;;;;;13.87;96.05;98814.81;4979173;28;20142;-78
2023/07/14 02:33:09;;;;;;;0.20;0.20;;;;;;;13.87;95.80;98818.41;4998289;28;20065;-78
2023/07/14 02:35:44;;;;;;;0.20;0.20;;;;;;;13.80;95.36;98811.75;4979396;28;20150;-78
2023/07/14 02:38:12;;;;;;;0.20;0.20;;;;;;;13.89;95.30;98829.03;4974806;28;20050;-78
2023/07/14 02:40:44;;;;;;;0.20;0.20;;;;;;;13.88;95.41;98839.25;4963689;28;20735;-78
2023/07/14 02:43:12;;;;;;;0.20;0.20;;;;;;;13.81;94.80;98822.41;4972700;28;20069;-78
2023/07/14 02:45:43;;;;;;;0.20;0.20;;;;;;;13.82;95.32;98824.06;4960533;28;20047;-79
2023/07/14 02:48:15;;;;;;;0.20;0.20;;;;;;;13.80;95.13;98829.03;4973945;28;20049;-78
2023/07/14 02:50:42;;;;;;;0.20;0.20;;;;;;;13.81;95.61;98829.84;4982013;28;20174;-79
2023/07/14 02:53:10;;;;;;;0.15;0.15;;;;;;;13.80;95.64;98834.53;4976116;28;20038;-78
2023/07/14 02:55:37;;;;;;;0.20;0.20;;;;;;;13.82;95.73;98846.03;4979870;28;20046;-78
2023/07/14 02:58:04;;;;;;;0.10;0.10;;;;;;;13.87;95.43;98854.09;4974615;28;20427;-78
2023/07/14 03:00:30;;;;;;;0.20;0.20;;;;;;;13.88;95.28;98847.47;4977975;28;20507;-79
2023/07/14 03:02:56;;;;;;;0.20;0.20;;;;;;;13.92;95.03;98850.41;4969486;28;20406;-79
2023/07/14 03:05:23;;;;;;;0.30;0.30;;;;;;;13.94;94.92;98848.16;4976438;28;20046;-78
2023/07/14 03:07:50;;;;;;;0.20;0.20;;;;;;;13.90;94.62;98850.72;4963569;28;20885;-80
2023/07/14 03:10:17;;;;;;;0.20;0.20;;;;;;;13.96;94.66;98856.06;4954680;28;20051;-79
2023/07/14 03:12:43;;;;;;;0.20;0.20;;;;;;;13.98;94.46;98856.56;4949645;28;21378;-79
2023/07/14 03:15:10;;;;;;;0.20;0.20;;;;;;;13.99;94.57;98858.19;4949286;28;20042;-79
2023/07/14 03:17:36;;;;;;;0.20;0.20;;;;;;;14.09;94.33;98862.56;4988805;28;20114;-78
2023/07/14 03:20:04;;;;;;;0.20;0.20;;;;;;;14.12;94.46;98856.41;4986944;28;20054;-78
2023/07/14 03:22:30;;;;;;;0.20;0.20;;;;;;;14.16;94.16;98871.13;4964658;28;20062;-79
2023/07/14 03:25:00;;;;;;;0.20;0.20;;;;;;;14.16;94.05;98868.38;4991979;28;20112;-78
2023/07/14 03:27:27;;;;;;;0.20;0.20;;;;;;;14.16;93.99;98858.19;4994372;28;20073;-78
2023/07/14 03:29:53;;;;;;;0.20;0.20;;;;;;;14.14;93.98;98862.41;4989214;28;20156;-79
2023/07/14 03:32:19;;;;;;;0.20;0.20;;;;;;;14.22;93.98;98871.78;4986726;28;20069;-79
2023/07/14 03:34:46;;;;;;;0.20;0.20;;;;;;;14.24;94.04;98880.50;4961505;28;20639;-79
2023/07/14 03:37:12;;;;;;;0.20;0.20;;;;;;;14.20;93.78;98874.84;4978060;28;20082;-79
2023/07/14 03:39:39;;;;;;;0.20;0.20;;;;;;;14.23;93.97;98879.72;4981656;28;20057;-78
2023/07/14 03:42:07;;;;;;;0.15;0.15;;;;;;;14.25;94.04;98879.38;4955386;28;20058;-78
2023/07/14 03:44:34;;;;;;;0.20;0.20;;;;;;;14.28;93.93;98874.06;4996573;28;20050;-78
2023/07/14 03:47:02;;;;;;;0.20;0.20;;;;;;;14.27;93.79;98877.13;4977548;28;20105;-78
2023/07/14 03:49:28;;;;;;;0.20;0.20;;;;;;;14.26;93.38;98867.25;4965069;28;20047;-79
2023/07/14 03:51:54;;;;;;;0.20;0.20;;;;;;;14.24;93.00;98870.34;4962335;28;20058;-78
2023/07/14 03:54:21;;;;;;;0.17;0.17;;;;;;;14.18;92.99;98875.19;4987857;28;20054;-79
2023/07/14 03:56:47;;;;;;;0.20;0.20;;;;;;;14.21;92.64;98878.41;4985466;28;20047;-80
2023/07/14 03:59:14;;;;;;;0.20;0.20;;;;;;;14.21;92.75;98881.97;4959945;28;20534;-79
2023/07/14 04:01:40;;;;;;;;;;;;;;;14.23;93.21;98890.72;4973214;28;20082;-79
2023/07/14 04:04:06;;;;;;;0.20;0.20;;;;;;;14.27;92.68;98880.69;4943832;28;19961;-79
2023/07/14 04:06:32;;;;;;;0.20;0.20;;;;;;;14.30;92.48;98891.03;4976217;28;20054;-79
2023/07/14 04:09:00;;;;;;;0.20;0.20;;;;;;;14.37;92.56;98895.25;4972480;28;20077;-78
2023/07/14 04:11:33;;;;;;;0.20;0.20;;;;;;;14.48;92.17;98898.50;4969927;28;20057;-78
2023/07/14 04:13:59;;;;;;;0.20;0.20;;;;;;;14.51;91.51;98890.38;4960622;28;20468;-79
2023/07/14 04:16:26;;;;;;;0.20;0.20;;;;;;;14.55;91.29;98899.63;4966983;28;20053;-78
2023/07/14 04:18:53;;;;;;;0.20;0.20;;;;;;;14.57;90.69;98894.63;4946929;28;20054;-78
2023/07/14 04:21:24;;;;;;;0.20;0.20;;;;;;;14.60;90.84;98904.97;4971595;28;20136;-77
2023/07/14 04:23:51;;;;;;;0.20;0.20;;;;;;;14.64;90.14;98899.63;4950892;28;20505;-77
2023/07/14 04:26:17;;;;;;;0.20;0.20;;;;;;;14.68;89.55;98900.59;4973242;28;20051;-77
2023/07/14 04:28:43;;;;;;;0.20;0.20;;;;;;;14.65;88.95;98901.25;4975418;28;20728;-78
2023/07/14 04:31:10;;;;;;;0.20;0.20;;;;;;;14.65;88.79;98901.25;4971074;28;20046;-79
2023/07/14 04:33:37;;;;;;;0.20;0.20;;;;;;;14.60;89.19;98910.47;4975728;28;20414;-78
2023/07/14 04:36:05;;;;;;;0.20;0.20;;;;;;;14.63;89.16;98913.69;4975842;28;20081;-78
2023/07/14 04:38:32;;;;;;;0.20;0.20;;;;;;;14.70;89.64;98917.56;4954721;28;20415;-79
2023/07/14 04:40:58;;;;;;;0.20;0.20;;;;;;;14.68;89.49;98897.84;4970906;28;20611;-79
2023/07/14 04:43:24;;;;;;;0.20;0.20;;;;;;;14.85;89.14;98919.06;4981169;28;20046;-78
2023/07/14 04:45:51;;;;;;;0.20;0.20;;;;;;;14.89;88.45;98910.97;4950818;28;20060;-78
2023/07/14 04:48:22;;;;;;;0.20;0.20;;;;;;;14.87;88.58;98910.47;4976460;28;20051;-77
2023/07/14 04:50:50;;;;;;;0.20;0.20;;;;;;;14.86;88.20;98911.63;4978782;28;20046;-79
2023/07/14 04:53:17;;;;;;;0.20;0.20;;;;;;;14.83;88.44;98910.34;4976740;28;20156;-78
2023/07/14 04:55:46;;;;;;;0.20;0.20;;;;;;;14.83;89.22;98906.75;4978574;28;20097;-78
2023/07/14 04:58:14;;;;;;;0.20;0.20;;;;;;;14.88;89.23;98912.09;4962971;28;20426;-78
2023/07/14 05:00:43;;;;;;;0.20;0.20;;;;;;;14.89;89.31;98913.72;4964681;28;20053;-78
2023/07/14 05:03:09;;;;;;;0.20;0.20;;;;;;;14.87;89.37;98904.97;4982031;28;20209;-78
2023/07/14 05:05:36;;;;;;;0.20;0.20;;;;;;;14.95;89.17;98917.09;4996477;28;20050;-78
2023/07/14 05:08:04;;;;;;;0.20;0.20;;;;;;;14.95;89.35;98915.19;4982961;28;20054;-78
2023/07/14 05:10:36;;;;;;;0.20;0.20;;;;;;;15.03;90.14;98916.28;4972653;28;20517;-79
2023/07/14 05:13:02;;;;;;;0.20;0.20;;;;;;;15.16;89.59;98915.31;4960068;28;20095;-79
2023/07/14 05:15:28;;;;;;;0.20;0.20;;;;;;;15.15;89.33;98912.88;4963568;28;20049;-79
2023/07/14 05:17:55;;;;;;;0.30;0.30;;;;;;;15.18;89.44;98917.72;4979283;28;20565;-79
2023/07/14 05:20:21;;;;;;;0.20;0.20;;;;;;;15.37;89.49;98922.84;4977044;28;20404;-79
2023/07/14 05:22:52;;;;;;;0.20;0.20;;;;;;;15.42;88.82;98902.59;4986059;28;20046;-79
2023/07/14 05:25:20;;;;;;;0.20;0.20;;;;;;;15.64;88.44;98920.00;4981876;28;20046;-79
2023/07/14 05:27:47;;;;;;;0.20;0.20;;;;;;;15.59;88.26;98921.81;4985236;28;20059;-79
2023/07/14 05:30:17;;;;;;;0.20;0.20;;;;;;;15.49;88.48;98926.88;4967973;28;20124;-79
2023/07/14 05:32:44;;;;;;;0.20;0.20;;;;;;;15.32;88.51;98920.28;4974825;28;20158;-78
2023/07/14 05:35:11;;;;;;;0.20;0.20;;;;;;;15.26;88.55;98924.34;4972847;28;20522;-78
2023/07/14 05:37:38;;;;;;;0.20;0.20;;;;;;;15.22;88.27;98921.44;4962715;28;20503;-79
2023/07/14 05:40:07;;;;;;;0.20;0.20;;;;;;;15.22;88.11;98912.38;4943024;28;20038;-78
2023/07/14 05:42:34;;;;;;;0.20;0.20;;;;;;;15.28;88.22;98922.06;4974293;28;20054;-79
2023/07/14 05:45:00;;;;;;;;;;;;;;;15.32;88.04;98928.56;4972437;28;20038;-79
2023/07/14 05:47:27;;;;;;;0.20;0.20;;;;;;;15.34;87.41;98929.03;4978804;28;19925;-79
2023/07/14 05:49:54;;;;;;;0.20;0.20;;;;;;;15.39;87.32;98925.28;4962413;28;20061;-79
2023/07/14 05:52:21;;;;;;;0.20;0.20;;;;;;;15.43;87.30;98920.75;4975727;28;20054;-78
2023/07/14 05:54:47;;;;;;;0.20;0.20;;;;;;;15.48;87.57;98928.03;4981413;28;20058;-79
2023/07/14 05:57:13;;;;;;;0.20;0.20;;;;;;;15.52;87.10;98934.47;4980738;28;20039;-78
2023/07/14 05:59:41;;;;;;;0.20;0.20;;;;;;;15.51;86.50;98928.16;4966769;28;20054;-77
2023/07/14 06:02:09;;;;;;;0.30;0.30;;;;;;;15.69;85.60;98933.63;4974097;28;20608;-78
2023/07/14 06:04:36;;;;;;;0.30;0.30;;;;;;;15.94;85.18;98936.59;4974472;28;20116;-78
2023/07/14 06:07:03;;;;;;;0.20;0.20;;;;;;;16.28;83.65;98932.03;4979383;28;20632;-78
2023/07/14 06:09:32;;;;;;;;;;;;;;;16.71;82.46;98930.13;4981318;28;20050;-76
2023/07/14 06:11:59;;;;;;;0.30;0.30;;;;;;;17.19;80.03;98933.44;4980857;28;19948;-77
2023/07/14 06:14:25;;;;;;;0.20;0.20;;;;;;;17.52;78.15;98926.28;4979057;28;20498;-76
2023/07/14 06:16:53;;;;;;;0.30;0.30;;;;;;;17.86;76.45;98935.28;4981608;28;20051;-77
2023/07/14 06:19:19;;;;;;;0.30;0.30;;;;;;;18.09;74.47;98934.84;4995776;28;20070;-77
2023/07/14 06:21:45;;;;;;;0.30;0.30;;;;;;;17.97;73.15;98930.91;4980180;28;20120;-77
2023/07/14 06:24:11;;;;;;;0.30;0.30;;;;;;;17.92;73.48;98930.34;4983657;28;20039;-77
2023/07/14 06:26:37;;;;;;;0.30;0.30;;;;;;;18.11;72.82;98930.59;4983318;28;20057;-76
2023/07/14 06:29:04;;;;;;;0.30;0.30;;;;;;;18.17;71.48;98925.63;4984224;28;20047;-77
2023/07/14 06:31:30;;;;;;;0.30;0.30;;;;;;;18.22;71.00;98935.66;4965604;28;20544;-77
2023/07/14 06:33:58;;;;;;;0.30;0.30;;;;;;;18.16;71.51;98946.16;4979563;28;20128;-77
2023/07/14 06:36:23;;;;;;;;;;;;;;;18.13;71.60;98933.81;4984054;28;20494;-77
2023/07/14 06:38:49;;;;;;;0.30;0.30;;;;;;;17.92;71.28;98931.13;4984868;28;20024;-76
2023/07/14 06:41:15;;;;;;;0.20;0.20;;;;;;;17.85;72.08;98948.28;4986110;28;20050;-77
2023/07/14 06:43:42;;;;;;;0.30;0.30;;;;;;;17.74;72.96;98947.16;4974742;28;20187;-77
2023/07/14 06:46:08;;;;;;;0.30;0.30;;;;;;;17.48;73.14;98942.72;4981335;28;20038;-77
2023/07/14 06:48:35;;;;;;;0.20;0.20;;;;;;;17.22;73.79;98954.84;4982856;28;20042;-77
2023/07/14 06:51:02;;;;;;;0.20;0.20;;;;;;;17.05;74.11;98953.06;4983606;28;20116;-78
2023/07/14 06:53:29;;;;;;;0.30;0.30;;;;;;;16.98;74.84;98950.00;4950601;28;20097;-77
2023/07/14 06:55:55;;;;;;;0.20;0.20;;;;;;;17.04;75.05;98956.97;4966832;28;20050;-77
2023/07/14 06:58:22;;;;;;;0.30;0.30;;;;;;;17.09;74.95;98956.75;4982789;28;20458;-76
2023/07/14 07:00:48;;;;;;;0.25;0.25;;;;;;;17.15;74.26;98954.59;4966569;28;20529;-76
2023/07/14 07:03:14;;;;;;;0.20;0.20;;;;;;;17.12;74.10;98961.59;4983649;28;20105;-76
2023/07/14 07:05:44;;;;;;;0.30;0.30;;;;;;;16.92;74.13;98962.41;5000393;28;20127;-76
2023/07/14 07:08:13;;;;;;;0.20;0.20;;;;;;;16.78;74.58;98962.66;4966076;28;20046;-76
2023/07/14 07:10:41;;;;;;;0.20;0.20;;;;;;;16.65;75.07;98973.66;4984020;28;20141;-76
2023/07/14 07:13:07;;;;;;;0.20;0.20;;;;;;;16.46;76.25;98965.84;4966842;28;20050;-76
2023/07/14 07:15:33;;;;;;;0.20;0.20;;;;;;;16.31;77.15;98969.97;4970219;28;20048;-76
2023/07/14 07:17:59;;;;;;;0.20;0.20;;;;;;;16.23;77.63;98968.09;4998860;28;20906;-76
2023/07/14 07:20:25;;;;;;;0.20;0.20;;;;;;;16.15;77.83;98961.47;4966421;28;20110;-76
2023/07/14 07:22:52;;;;;;;0.20;0.20;;;;;;;16.14;78.39;98965.38;4982304;28;20072;-76
2023/07/14 07:25:19;;;;;;;0.20;0.20;;;;;;;16.18;78.42;98984.84;4966909;28;20518;-77
2023/07/14 07:27:45;;;;;;;0.20;0.20;;;;;;;16.25;78.17;98971.31;4982125;28;20065;-76
2023/07/14 07:30:12;;;;;;;0.20;0.20;;;;;;;16.26;77.48;98968.22;4982526;28;20096;-76
2023/07/14 07:32:40;;;;;;;0.38;0.30;;;;;;;16.24;77.79;98970.53;4996370;28;20104;-77
2023/07/14 07:35:08;;;;;;;0.40;0.20;;;;;;;16.34;77.55;98983.13;4980798;28;20058;-77
2023/07/14 07:37:34;;;;;;;0.20;0.20;;;;;;;16.33;77.48;98983.44;4950810;28;20042;-77
2023/07/14 07:40:02;;;;;;;0.20;0.20;;;;;;;16.25;77.16;98988.69;4968286;28;20069;-77
2023/07/14 07:42:31;;;;;;;0.20;0.20;;;;;;;16.24;77.44;98987.06;4984848;28;20050;-77
2023/07/14 07:44:57;;;;;;;0.20;0.20;;;;;;;16.28;77.66;98984.44;4982815;28;20054;-77
2023/07/14 07:47:24;;;;;;;0.20;0.20;;;;;;;16.33;77.53;98995.28;4983764;28;20137;-78
2023/07/14 07:49:50;;;;;;;0.30;0.30;;;;;;;16.40;76.96;98992.00;4997353;28;20050;-78
2023/07/14 07:52:16;;;;;;;0.20;0.20;;;;;;;16.45;76.45;98995.34;4982365;28;20062;-77
2023/07/14 07:54:42;;;;;;;0.20;0.20;;;;;;;16.51;76.55;99000.72;4982461;28;20054;-77
2023/07/14 07:57:09;;;;;;;0.20;0.20;;;;;;;16.55;76.28;98996.94;4983955;28;20046;-77
2023/07/14 07:59:37;;;;;;;0.22;0.22;;;;;;;16.56;75.83;98993.03;4982084;28;20565;-77
2023/07/14 08:02:04;;;;;;;0.30;0.30;;;;;;;16.53;75.79;98995.66;4983192;28;20045;-77
2023/07/14 08:04:30;;;;;;;0.20;0.20;;;;;;;16.51;75.94;98995.19;4994832;28;20046;-77
2023/07/14 08:06:57;;;;;;;0.20;0.20;;;;;;;16.55;76.14;98996.94;4948890;28;20056;-77
2023/07/14 08:09:23;;;;;;;0.20;0.20;;;;;;;16.55;75.82;98996.94;4981286;28;20190;-77
2023/07/14 08:11:53;;;;;;;0.20;0.20;;;;;;;16.49;75.86;98998.25;4997673;28;20046;-78
2023/07/14 08:14:20;;;;;;;0.20;0.20;;;;;;;16.40;76.21;98997.53;4980447;28;20050;-77
2023/07/14 08:16:47;;;;;;;0.20;0.20;;;;;;;16.29;76.65;99003.41;4979745;28;20042;-77
2023/07/14 08:19:14;;;;;;;0.20;0.20;;;;;;;16.19;77.02;99009.31;4985176;28;20506;-78
2023/07/14 08:21:41;;;;;;;0.20;0.20;;;;;;;16.15;77.18;99003.63;4987448;28;20054;-77
2023/07/14 08:24:08;;;;;;;0.20;0.20;;;;;;;16.14;77.61;99009.50;4986417;28;20065;-78
2023/07/14 08:26:34;;;;;;;0.28;0.28;;;;;;;16.12;77.86;99015.34;4985597;28;20045;-77
2023/07/14 08:29:03;;;;;;;0.30;0.30;;;;;;;16.09;78.11;99020.72;4977828;28;20086;-76
2023/07/14 08:31:30;;;;;;;0.20;0.20;;;;;;;16.08;78.35;99027.34;4958580;28;20046;-77
2023/07/14 08:33:58;;;;;;;0.30;0.30;;;;;;;16.06;78.25;99024.13;4966948;28;20066;-77
2023/07/14 08:36:24;;;;;;;0.20;0.20;;;;;;;16.07;78.31;99026.56;4985263;28;20054;-77
2023/07/14 08:38:54;;;;;;;0.20;0.20;;;;;;;16.07;78.92;99026.56;4985723;28;20469;-77
2023/07/14 08:41:28;;;;;;;0.20;0.20;;;;;;;15.98;78.75;99021.06;4986534;28;20062;-77
2023/07/14 08:44:20;;;;;;;0.20;0.20;;;;;;;15.97;79.24;99029.66;4963172;28;20135;-77
2023/07/14 08:46:53;;;;;;;0.20;0.20;;;;;;;15.91;79.85;99025.47;4982455;28;20457;-77
2023/07/14 08:49:25;;;;;;;0.20;0.20;;;;;;;15.83;79.60;99022.38;4986637;28;20059;-79
2023/07/14 08:51:54;;;;;;;0.20;0.20;;;;;;;15.85;80.02;99027.56;5002293;28;20062;-76
2023/07/14 08:54:26;;;;;;;0.20;0.20;;;;;;;15.83;80.14;99027.09;4974576;28;20556;-76
2023/07/14 08:56:52;;;;;;;0.20;0.20;;;;;;;15.83;80.29;99033.41;5002848;28;20050;-77
2023/07/14 08:59:30;;;;;;;0.20;0.20;;;;;;;15.78;80.11;99030.03;4955506;28;20070;-77
2023/07/14 09:01:59;;;;;;;0.20;0.20;;;;;;;15.80;80.26;99034.06;4952334;28;20046;-76
2023/07/14 09:04:32;;;;;;;0.20;0.20;;;;;;;15.80;80.28;99031.31;4978958;28;20438;-77
2023/07/14 09:06:58;;;;;;;0.20;0.20;;;;;;;15.81;80.07;99037.66;4981020;28;20212;-77
2023/07/14 09:09:31;;;;;;;0.20;0.20;;;;;;;15.87;80.39;99033.56;4987319;28;20058;-77
2023/07/14 09:12:06;;;;;;;0.30;0.30;;;;;;;15.90;80.21;99021.91;4987116;28;20054;-77
2023/07/14 09:14:43;;;;;;;0.20;0.20;;;;;;;15.96;79.95;99026.13;4997232;28;20068;-77
2023/07/14 09:17:23;;;;;;;0.20;0.20;;;;;;;16.11;79.47;99026.72;4985983;28;20049;-77
2023/07/14 09:20:27;;;;;;;0.63;0.40;;;;;;;16.29;79.04;99019.16;4948578;28;20046;-77
2023/07/14 09:23:02;;;;;;;0.30;0.30;;;;;;;16.85;77.16;99020.94;4975829;28;20434;-77
2023/07/14 09:25:34;;;;;;;0.30;0.30;;;;;;;17.63;74.30;99021.38;4980940;28;20418;-77
2023/07/14 09:28:00;;;;;;;0.30;0.30;;;;;;;18.19;71.41;99022.91;4630032;28;10001301;-77
2023/07/14 09:30:28;;;;;;;0.20;0.20;;;;;;;18.37;70.08;99025.44;4981919;28;20267;-76
2023/07/14 09:32:58;;;;;;;0.45;0.30;;;;;;;18.24;70.79;99030.97;4977547;28;20042;-76
2023/07/14 09:35:28;;;;;;;0.20;0.20;;;;;;;18.02;71.55;99023.09;4991245;28;20511;-76
2023/07/14 09:38:03;;;;;;;0.30;0.30;;;;;;;17.76;71.91;99027.78;4983744;28;20478;-76
2023/07/14 09:40:31;;;;;;;0.28;0.28;;;;;;;17.60;72.73;99035.91;4963099;28;20415;-76
2023/07/14 09:42:59;;;;;;;0.20;0.20;;;;;;;17.50;73.04;99023.31;4981657;28;20050;-76
2023/07/14 09:45:27;;;;;;;;;;;;;;;17.43;73.23;99034.13;4981240;28;20333;-76
2023/07/14 09:47:58;;;;;;;0.20;0.20;;;;;;;17.35;73.71;99038.59;4978876;28;20019;-76
2023/07/14 09:50:26;;;;;;;0.20;0.20;;;;;;;17.30;73.65;99033.25;4981202;28;20128;-76
2023/07/14 09:52:55;;;;;;;0.20;0.20;;;;;;;17.26;73.63;99030.38;4963994;28;20201;-77
2023/07/14 09:55:24;;;;;;;0.20;0.20;;;;;;;17.25;73.17;99034.28;4980951;28;20081;-78
2023/07/14 09:57:53;;;;;;;0.20;0.20;;;;;;;17.19;73.66;99037.59;4975399;28;20506;-78
2023/07/14 10:00:24;;;;;;;0.20;0.20;;;;;;;17.12;74.20;99038.13;4974000;28;20046;-78
2023/07/14 10:03:01;;;;;;;0.28;0.28;;;;;;;17.23;73.98;99041.28;4970489;28;20089;-78
2023/07/14 10:05:36;;;;;;;0.20;0.20;;;;;;;17.35;73.66;99038.59;4960892;28;20215;-77
2023/07/14 10:08:21;;;;;;;0.28;0.28;;;;;;;17.39;72.90;99036.75;4978173;28;20046;-78
2023/07/14 10:10:49;;;;;;;0.20;0.20;;;;;;;17.39;72.80;99047.81;4982046;28;20165;-77
2023/07/14 10:13:18;;;;;;;0.30;0.30;;;;;;;17.33;72.93;99043.66;4984637;28;20046;-77
2023/07/14 10:15:53;;;;;;;0.20;0.20;;;;;;;17.19;73.06;99029.31;4980284;28;20557;-77
2023/07/14 10:18:19;;;;;;;0.20;0.20;;;;;;;17.24;73.34;99051.19;4984479;28;20055;-76
2023/07/14 10:20:56;;;;;;;0.20;0.20;;;;;;;17.18;73.04;99058.06;4987311;28;20081;-78
2023/07/14 10:23:24;;;;;;;0.20;0.20;;;;;;;17.12;73.47;99055.50;4977478;28;20606;-76
2023/07/14 10:25:54;;;;;;;0.20;0.20;;;;;;;17.08;73.05;99057.31;4966825;28;20109;-77
2023/07/14 10:28:24;;;;;;;0.20;0.20;;;;;;;17.05;72.79;99058.00;4982973;28;20058;-77
2023/07/14 10:31:02;;;;;;;0.30;0.30;;;;;;;16.99;72.76;99070.38;4984687;28;20046;-77
2023/07/14 10:33:41;;;;;;;0.30;0.30;;;;;;;16.90;72.81;99073.16;4986476;28;20069;-76
2023/07/14 10:36:11;;;;;;;0.25;0.25;;;;;;;16.83;72.82;99068.19;4987019;28;20046;-76
2023/07/14 10:38:44;;;;;;;0.20;0.20;;;;;;;16.77;73.33;99063.19;4981224;28;20058;-77
2023/07/14 10:41:13;;;;;;;0.20;0.20;;;;;;;16.73;73.77;99065.81;4982564;28;20096;-78
2023/07/14 10:43:44;;;;;;;0.20;0.20;;;;;;;16.70;73.89;99066.47;4973234;28;20109;-78
2023/07/14 10:46:15;;;;;;;0.20;0.20;;;;;;;16.68;73.70;99075.09;4965212;28;20058;-77
2023/07/14 10:48:47;;;;;;;0.20;0.20;;;;;;;16.70;74.26;99077.50;4978485;28;20054;-78
2023/07/14 10:51:24;;;;;;;0.30;0.30;;;;;;;16.69;74.18;99087.75;4958301;28;20288;-77
2023/07/14 10:53:57;;;;;;;0.20;0.20;;;;;;;16.77;74.35;99074.22;4962444;28;20101;-77
2023/07/14 10:56:30;;;;;;;0.20;0.20;;;;;;;16.86;73.77;99080.50;4980782;28;20097;-77
2023/07/14 10:59:02;;;;;;;0.30;0.30;;;;;;;16.92;73.88;99079.16;4977102;28;20054;-77
2023/07/14 11:01:34;;;;;;;0.20;0.20;;;;;;;16.98;73.29;99079.78;4980598;28;20421;-77
2023/07/14 11:04:19;;;;;;;0.30;0.30;;;;;;;17.05;73.13;99082.03;4981098;28;20471;-77
2023/07/14 11:06:49;;;;;;;0.20;0.20;;;;;;;17.21;72.54;99087.78;4978912;28;20140;-77
2023/07/14 11:09:15;;;;;;;0.22;0.22;;;;;;;17.38;72.28;99089.56;4980962;28;20042;-78
2023/07/14 11:11:52;;;;;;;0.30;0.30;;;;;;;17.46;71.25;99091.47;4981108;28;20047;-78
2023/07/14 11:14:29;;;;;;;0.30;0.30;;;;;;;17.48;70.58;99082.81;4983786;28;20068;-77
2023/07/14 11:17:03;;;;;;;0.30;0.30;;;;;;;17.43;70.32;99090.19;4977561;28;20140;-75
2023/07/14 11:19:48;;;;;;;0.30;0.30;;;;;;;17.43;70.60;99092.94;4982401;28;20046;-75
2023/07/14 11:22:29;;;;;;;0.30;0.30;;;;;;;17.41;70.06;99089.72;4964916;28;20519;-76
2023/07/14 11:25:06;;;;;;;0.25;0.25;;;;;;;17.40;70.43;99101.09;4978779;28;20058;-77
2023/07/14 11:27:35;;;;;;;;;;;;;;;17.38;70.22;99095.94;4964715;28;20086;-76
2023/07/14 11:30:12;;;;;;;0.20;0.20;;;;;;;17.40;70.52;99095.56;4983975;28;19949;-76
2023/07/14 11:32:46;;;;;;;0.30;0.30;;;;;;;17.53;70.29;99094.47;4984775;28;20161;-77
2023/07/14 11:35:19;;;;;;;0.30;0.30;;;;;;;17.70;70.11;99090.75;4982055;28;20061;-75
2023/07/14 11:38:00;;;;;;;0.20;0.20;;;;;;;17.85;69.47;99091.28;4985495;28;20127;-76
2023/07/14 11:40:32;;;;;;;0.30;0.30;;;;;;;17.97;69.01;99091.31;4983375;28;20042;-76
2023/07/14 11:43:01;;;;;;;0.30;0.30;;;;;;;18.10;68.55;99092.16;4984168;28;20141;-76